sensor_id;sensor_type;location;lat;lon;timestamp;P1;durP1;ratioP1;P2;durP2;ratioP2
14619;SDS011;32125;48.518;9.050;2023-04-03T00:01:11;4.67;;;3.77;;
14619;SDS011;32125;48.518;9.050;2023-04-03T00:03:37;4.20;;;3.50;;
14619;SDS011;32125;48.518;9.050;2023-04-03T00:06:05;3.47;;;3.17;;
14619;SDS011;32125;48.518;9.050;2023-04-03T00:08:33;4.50;;;3.60;;
14619;SDS011;32125;48.518;9.050;2023-04-03T00:10:59;3.93;;;3.53;;
14619;SDS011;32125;48.518;9.050;2023-04-03T00:13:25;3.83;;;3.30;;
14619;SDS011;32125;48.518;9.050;2023-04-03T00:15:51;4.83;;;3.70;;
14619;SDS011;32125;48.518;9.050;2023-04-03T00:18:18;4.90;;;3.60;;
14619;SDS011;32125;48.518;9.050;2023-04-03T00:20:46;4.17;;;3.50;;
14619;SDS011;32125;48.518;9.050;2023-04-03T00:23:12;5.60;;;3.33;;
14619;SDS011;32125;48.518;9.050;2023-04-03T00:25:40;3.37;;;3.07;;
14619;SDS011;32125;48.518;9.050;2023-04-03T00:28:06;4.17;;;3.77;;
14619;SDS011;32125;48.518;9.050;2023-04-03T00:30:33;4.00;;;3.40;;
14619;SDS011;32125;48.518;9.050;2023-04-03T00:32:59;3.93;;;3.60;;
14619;SDS011;32125;48.518;9.050;2023-04-03T00:35:28;4.33;;;3.40;;
14619;SDS011;32125;48.518;9.050;2023-04-03T00:37:54;4.93;;;3.63;;
14619;SDS011;32125;48.518;9.050;2023-04-03T00:40:21;5.03;;;3.60;;
14619;SDS011;32125;48.518;9.050;2023-04-03T00:42:48;5.53;;;3.63;;
14619;SDS011;32125;48.518;9.050;2023-04-03T00:45:48;4.97;;;4.07;;
14619;SDS011;32125;48.518;9.050;2023-04-03T00:48:13;6.40;;;3.67;;
14619;SDS011;32125;48.518;9.050;2023-04-03T00:50:41;3.70;;;3.30;;
14619;SDS011;32125;48.518;9.050;2023-04-03T00:53:09;4.43;;;3.50;;
14619;SDS011;32125;48.518;9.050;2023-04-03T00:55:41;5.07;;;3.53;;
14619;SDS011;32125;48.518;9.050;2023-04-03T00:58:07;4.03;;;3.50;;
14619;SDS011;32125;48.518;9.050;2023-04-03T01:00:34;5.13;;;3.93;;
14619;SDS011;32125;48.518;9.050;2023-04-03T01:03:01;4.63;;;3.53;;
14619;SDS011;32125;48.518;9.050;2023-04-03T01:05:27;4.03;;;3.50;;
14619;SDS011;32125;48.518;9.050;2023-04-03T01:07:53;4.07;;;3.50;;
14619;SDS011;32125;48.518;9.050;2023-04-03T01:10:20;3.57;;;3.27;;
14619;SDS011;32125;48.518;9.050;2023-04-03T01:12:47;5.03;;;4.07;;
14619;SDS011;32125;48.518;9.050;2023-04-03T01:15:17;4.87;;;3.30;;
14619;SDS011;32125;48.518;9.050;2023-04-03T01:17:49;5.67;;;3.70;;
14619;SDS011;32125;48.518;9.050;2023-04-03T01:25:32;4.00;;;3.60;;
14619;SDS011;32125;48.518;9.050;2023-04-03T01:27:59;4.53;;;3.63;;
14619;SDS011;32125;48.518;9.050;2023-04-03T01:30:28;4.23;;;3.13;;
14619;SDS011;32125;48.518;9.050;2023-04-03T01:32:56;4.10;;;3.70;;
14619;SDS011;32125;48.518;9.050;2023-04-03T01:35:22;4.30;;;3.63;;
14619;SDS011;32125;48.518;9.050;2023-04-03T01:37:48;3.90;;;3.50;;
14619;SDS011;32125;48.518;9.050;2023-04-03T01:40:17;4.07;;;3.60;;
14619;SDS011;32125;48.518;9.050;2023-04-03T01:42:43;4.23;;;3.83;;
14619;SDS011;32125;48.518;9.050;2023-04-03T01:45:09;3.93;;;3.53;;
14619;SDS011;32125;48.518;9.050;2023-04-03T01:47:35;3.83;;;3.27;;
14619;SDS011;32125;48.518;9.050;2023-04-03T01:50:01;4.27;;;3.67;;
14619;SDS011;32125;48.518;9.050;2023-04-03T01:52:30;4.97;;;3.40;;
14619;SDS011;32125;48.518;9.050;2023-04-03T01:54:56;4.20;;;3.80;;
14619;SDS011;32125;48.518;9.050;2023-04-03T01:57:24;4.53;;;3.40;;
14619;SDS011;32125;48.518;9.050;2023-04-03T01:59:50;7.93;;;3.90;;
14619;SDS011;32125;48.518;9.050;2023-04-03T02:02:18;3.70;;;3.40;;
14619;SDS011;32125;48.518;9.050;2023-04-03T02:04:45;3.77;;;3.33;;
14619;SDS011;32125;48.518;9.050;2023-04-03T02:07:11;4.30;;;3.60;;
14619;SDS011;32125;48.518;9.050;2023-04-03T02:09:39;3.93;;;3.50;;
14619;SDS011;32125;48.518;9.050;2023-04-03T02:12:05;5.97;;;3.73;;
14619;SDS011;32125;48.518;9.050;2023-04-03T02:14:31;5.20;;;3.90;;
14619;SDS011;32125;48.518;9.050;2023-04-03T02:16:57;4.40;;;3.97;;
14619;SDS011;32125;48.518;9.050;2023-04-03T02:19:23;4.20;;;3.80;;
14619;SDS011;32125;48.518;9.050;2023-04-03T02:21:52;4.20;;;3.63;;
14619;SDS011;32125;48.518;9.050;2023-04-03T02:24:18;4.20;;;3.67;;
14619;SDS011;32125;48.518;9.050;2023-04-03T02:26:44;4.43;;;3.83;;
14619;SDS011;32125;48.518;9.050;2023-04-03T02:29:10;3.90;;;3.50;;
14619;SDS011;32125;48.518;9.050;2023-04-03T02:31:36;4.37;;;3.43;;
14619;SDS011;32125;48.518;9.050;2023-04-03T02:34:02;3.93;;;3.60;;
14619;SDS011;32125;48.518;9.050;2023-04-03T02:36:28;3.93;;;3.37;;
14619;SDS011;32125;48.518;9.050;2023-04-03T02:38:54;4.47;;;3.80;;
14619;SDS011;32125;48.518;9.050;2023-04-03T02:41:20;4.10;;;3.70;;
14619;SDS011;32125;48.518;9.050;2023-04-03T02:43:46;4.00;;;3.70;;
14619;SDS011;32125;48.518;9.050;2023-04-03T02:46:12;4.03;;;3.63;;
14619;SDS011;32125;48.518;9.050;2023-04-03T02:48:40;3.97;;;3.57;;
14619;SDS011;32125;48.518;9.050;2023-04-03T02:51:06;3.70;;;3.40;;
14619;SDS011;32125;48.518;9.050;2023-04-03T02:53:32;4.10;;;3.70;;
14619;SDS011;32125;48.518;9.050;2023-04-03T02:55:58;6.90;;;3.67;;
14619;SDS011;32125;48.518;9.050;2023-04-03T02:58:24;4.27;;;3.70;;
14619;SDS011;32125;48.518;9.050;2023-04-03T03:00:50;4.23;;;3.50;;
14619;SDS011;32125;48.518;9.050;2023-04-03T03:03:16;3.97;;;3.50;;
14619;SDS011;32125;48.518;9.050;2023-04-03T03:05:42;4.03;;;3.63;;
14619;SDS011;32125;48.518;9.050;2023-04-03T03:08:08;3.97;;;3.40;;
14619;SDS011;32125;48.518;9.050;2023-04-03T03:10:36;4.00;;;3.60;;
14619;SDS011;32125;48.518;9.050;2023-04-03T03:13:02;4.00;;;3.60;;
14619;SDS011;32125;48.518;9.050;2023-04-03T03:15:28;4.10;;;3.17;;
14619;SDS011;32125;48.518;9.050;2023-04-03T03:17:54;3.93;;;3.60;;
14619;SDS011;32125;48.518;9.050;2023-04-03T03:20:20;4.03;;;3.63;;
14619;SDS011;32125;48.518;9.050;2023-04-03T03:22:50;5.90;;;3.90;;
14619;SDS011;32125;48.518;9.050;2023-04-03T03:25:19;4.50;;;3.43;;
14619;SDS011;32125;48.518;9.050;2023-04-03T03:27:45;3.70;;;3.40;;
14619;SDS011;32125;48.518;9.050;2023-04-03T03:30:11;3.60;;;3.30;;
14619;SDS011;32125;48.518;9.050;2023-04-03T03:32:37;3.93;;;3.57;;
14619;SDS011;32125;48.518;9.050;2023-04-03T03:35:03;6.00;;;3.87;;
14619;SDS011;32125;48.518;9.050;2023-04-03T03:37:29;3.90;;;3.50;;
14619;SDS011;32125;48.518;9.050;2023-04-03T03:39:55;3.90;;;3.50;;
14619;SDS011;32125;48.518;9.050;2023-04-03T03:42:21;4.37;;;3.57;;
14619;SDS011;32125;48.518;9.050;2023-04-03T03:44:47;3.80;;;3.37;;
14619;SDS011;32125;48.518;9.050;2023-04-03T03:47:16;5.30;;;3.33;;
14619;SDS011;32125;48.518;9.050;2023-04-03T03:49:42;4.37;;;3.47;;
14619;SDS011;32125;48.518;9.050;2023-04-03T03:52:08;4.10;;;3.60;;
14619;SDS011;32125;48.518;9.050;2023-04-03T03:54:35;5.43;;;3.60;;
14619;SDS011;32125;48.518;9.050;2023-04-03T03:57:04;4.73;;;3.60;;
14619;SDS011;32125;48.518;9.050;2023-04-03T03:59:30;3.83;;;3.30;;
14619;SDS011;32125;48.518;9.050;2023-04-03T04:01:56;5.83;;;3.43;;
14619;SDS011;32125;48.518;9.050;2023-04-03T04:04:25;3.70;;;3.40;;
14619;SDS011;32125;48.518;9.050;2023-04-03T04:06:51;3.93;;;3.47;;
14619;SDS011;32125;48.518;9.050;2023-04-03T04:09:17;4.03;;;3.57;;
14619;SDS011;32125;48.518;9.050;2023-04-03T04:11:43;4.20;;;3.80;;
14619;SDS011;32125;48.518;9.050;2023-04-03T04:14:10;4.80;;;3.70;;
14619;SDS011;32125;48.518;9.050;2023-04-03T04:16:38;4.77;;;3.40;;
14619;SDS011;32125;48.518;9.050;2023-04-03T04:19:04;3.60;;;3.30;;
14619;SDS011;32125;48.518;9.050;2023-04-03T04:21:30;3.60;;;3.30;;
14619;SDS011;32125;48.518;9.050;2023-04-03T04:23:56;4.73;;;3.60;;
14619;SDS011;32125;48.518;9.050;2023-04-03T04:26:22;3.90;;;3.50;;
14619;SDS011;32125;48.518;9.050;2023-04-03T04:28:49;4.37;;;3.50;;
14619;SDS011;32125;48.518;9.050;2023-04-03T04:31:15;4.07;;;3.43;;
14619;SDS011;32125;48.518;9.050;2023-04-03T04:33:41;4.30;;;3.90;;
14619;SDS011;32125;48.518;9.050;2023-04-03T04:36:07;4.53;;;3.87;;
14619;SDS011;32125;48.518;9.050;2023-04-03T04:38:33;5.07;;;3.50;;
14619;SDS011;32125;48.518;9.050;2023-04-03T04:40:59;4.50;;;3.70;;
14619;SDS011;32125;48.518;9.050;2023-04-03T04:43:25;4.37;;;3.23;;
14619;SDS011;32125;48.518;9.050;2023-04-03T04:46:07;3.57;;;3.27;;
14619;SDS011;32125;48.518;9.050;2023-04-03T04:48:36;4.07;;;3.63;;
14619;SDS011;32125;48.518;9.050;2023-04-03T04:51:02;4.47;;;3.50;;
14619;SDS011;32125;48.518;9.050;2023-04-03T04:53:30;4.00;;;3.60;;
14619;SDS011;32125;48.518;9.050;2023-04-03T04:55:56;4.10;;;3.27;;
14619;SDS011;32125;48.518;9.050;2023-04-03T04:58:22;3.50;;;3.20;;
14619;SDS011;32125;48.518;9.050;2023-04-03T05:00:48;4.90;;;3.50;;
14619;SDS011;32125;48.518;9.050;2023-04-03T05:03:20;4.63;;;4.07;;
14619;SDS011;32125;48.518;9.050;2023-04-03T05:05:46;4.27;;;3.53;;
14619;SDS011;32125;48.518;9.050;2023-04-03T05:08:12;4.70;;;3.93;;
14619;SDS011;32125;48.518;9.050;2023-04-03T05:10:38;5.03;;;3.67;;
14619;SDS011;32125;48.518;9.050;2023-04-03T05:13:06;3.70;;;3.40;;
14619;SDS011;32125;48.518;9.050;2023-04-03T05:15:32;4.07;;;3.43;;
14619;SDS011;32125;48.518;9.050;2023-04-03T05:18:01;4.10;;;3.70;;
14619;SDS011;32125;48.518;9.050;2023-04-03T05:20:27;3.87;;;3.47;;
14619;SDS011;32125;48.518;9.050;2023-04-03T05:22:53;4.90;;;3.63;;
14619;SDS011;32125;48.518;9.050;2023-04-03T05:25:19;3.90;;;3.47;;
14619;SDS011;32125;48.518;9.050;2023-04-03T05:27:45;4.47;;;3.50;;
14619;SDS011;32125;48.518;9.050;2023-04-03T05:30:14;4.47;;;3.40;;
14619;SDS011;32125;48.518;9.050;2023-04-03T05:32:43;3.90;;;3.50;;
14619;SDS011;32125;48.518;9.050;2023-04-03T05:35:09;3.47;;;3.17;;
14619;SDS011;32125;48.518;9.050;2023-04-03T05:37:35;3.63;;;3.33;;
14619;SDS011;32125;48.518;9.050;2023-04-03T05:40:02;4.00;;;3.60;;
14619;SDS011;32125;48.518;9.050;2023-04-03T05:42:29;4.07;;;3.23;;
14619;SDS011;32125;48.518;9.050;2023-04-03T05:44:55;4.50;;;3.60;;
14619;SDS011;32125;48.518;9.050;2023-04-03T05:47:22;3.47;;;3.17;;
14619;SDS011;32125;48.518;9.050;2023-04-03T05:49:48;4.03;;;3.23;;
14619;SDS011;32125;48.518;9.050;2023-04-03T05:52:28;3.30;;;3.00;;
14619;SDS011;32125;48.518;9.050;2023-04-03T05:54:54;4.70;;;3.30;;
14619;SDS011;32125;48.518;9.050;2023-04-03T05:57:21;4.03;;;3.37;;
14619;SDS011;32125;48.518;9.050;2023-04-03T05:59:47;4.07;;;3.30;;
14619;SDS011;32125;48.518;9.050;2023-04-03T06:02:16;3.83;;;3.30;;
14619;SDS011;32125;48.518;9.050;2023-04-03T06:04:43;4.00;;;2.50;;
14619;SDS011;32125;48.518;9.050;2023-04-03T06:07:11;3.53;;;2.90;;
14619;SDS011;32125;48.518;9.050;2023-04-03T06:09:37;3.87;;;2.77;;
14619;SDS011;32125;48.518;9.050;2023-04-03T06:12:03;3.33;;;3.00;;
14619;SDS011;32125;48.518;9.050;2023-04-03T06:14:30;3.00;;;2.70;;
14619;SDS011;32125;48.518;9.050;2023-04-03T06:16:56;2.87;;;2.60;;
14619;SDS011;32125;48.518;9.050;2023-04-03T06:19:22;3.73;;;2.83;;
14619;SDS011;32125;48.518;9.050;2023-04-03T06:21:48;4.90;;;2.77;;
14619;SDS011;32125;48.518;9.050;2023-04-03T06:24:15;2.90;;;2.60;;
14619;SDS011;32125;48.518;9.050;2023-04-03T06:26:42;3.23;;;2.40;;
14619;SDS011;32125;48.518;9.050;2023-04-03T06:29:08;3.40;;;2.47;;
14619;SDS011;32125;48.518;9.050;2023-04-03T06:31:34;3.07;;;2.43;;
14619;SDS011;32125;48.518;9.050;2023-04-03T06:34:01;2.87;;;2.30;;
14619;SDS011;32125;48.518;9.050;2023-04-03T06:36:28;2.50;;;2.30;;
14619;SDS011;32125;48.518;9.050;2023-04-03T06:38:54;2.90;;;2.33;;
14619;SDS011;32125;48.518;9.050;2023-04-03T06:41:21;3.87;;;2.30;;
14619;SDS011;32125;48.518;9.050;2023-04-03T06:43:47;3.13;;;2.60;;
14619;SDS011;32125;48.518;9.050;2023-04-03T06:46:16;2.90;;;2.50;;
14619;SDS011;32125;48.518;9.050;2023-04-03T06:48:43;2.73;;;2.50;;
14619;SDS011;32125;48.518;9.050;2023-04-03T06:51:22;3.30;;;2.40;;
14619;SDS011;32125;48.518;9.050;2023-04-03T06:53:49;2.63;;;2.43;;
14619;SDS011;32125;48.518;9.050;2023-04-03T06:56:16;2.83;;;2.23;;
14619;SDS011;32125;48.518;9.050;2023-04-03T06:58:43;2.60;;;2.40;;
14619;SDS011;32125;48.518;9.050;2023-04-03T07:01:10;3.87;;;2.57;;
14619;SDS011;32125;48.518;9.050;2023-04-03T07:03:37;2.40;;;2.20;;
14619;SDS011;32125;48.518;9.050;2023-04-03T07:06:04;2.73;;;2.30;;
14619;SDS011;32125;48.518;9.050;2023-04-03T07:08:30;2.80;;;2.60;;
14619;SDS011;32125;48.518;9.050;2023-04-03T07:10:57;3.17;;;2.40;;
14619;SDS011;32125;48.518;9.050;2023-04-03T07:13:23;2.83;;;2.50;;
14619;SDS011;32125;48.518;9.050;2023-04-03T07:15:49;5.10;;;2.80;;
14619;SDS011;32125;48.518;9.050;2023-04-03T07:18:15;2.57;;;2.37;;
14619;SDS011;32125;48.518;9.050;2023-04-03T07:20:44;3.13;;;2.70;;
14619;SDS011;32125;48.518;9.050;2023-04-03T07:23:13;2.80;;;2.60;;
14619;SDS011;32125;48.518;9.050;2023-04-03T07:25:45;2.57;;;2.20;;
14619;SDS011;32125;48.518;9.050;2023-04-03T07:28:12;2.53;;;2.30;;
14619;SDS011;32125;48.518;9.050;2023-04-03T07:30:42;2.50;;;2.27;;
14619;SDS011;32125;48.518;9.050;2023-04-03T07:33:08;3.97;;;2.40;;
14619;SDS011;32125;48.518;9.050;2023-04-03T07:35:34;2.97;;;2.30;;
14619;SDS011;32125;48.518;9.050;2023-04-03T07:38:00;3.07;;;2.20;;
14619;SDS011;32125;48.518;9.050;2023-04-03T07:40:26;4.30;;;2.43;;
14619;SDS011;32125;48.518;9.050;2023-04-03T07:42:52;2.53;;;2.33;;
14619;SDS011;32125;48.518;9.050;2023-04-03T07:45:21;2.40;;;2.20;;
14619;SDS011;32125;48.518;9.050;2023-04-03T07:47:50;3.30;;;2.27;;
14619;SDS011;32125;48.518;9.050;2023-04-03T07:50:18;2.37;;;2.10;;
14619;SDS011;32125;48.518;9.050;2023-04-03T07:52:45;2.33;;;2.00;;
14619;SDS011;32125;48.518;9.050;2023-04-03T07:55:11;3.07;;;2.63;;
14619;SDS011;32125;48.518;9.050;2023-04-03T07:57:37;2.20;;;2.00;;
14619;SDS011;32125;48.518;9.050;2023-04-03T08:00:04;2.13;;;1.93;;
14619;SDS011;32125;48.518;9.050;2023-04-03T08:02:30;3.00;;;2.10;;
14619;SDS011;32125;48.518;9.050;2023-04-03T08:04:57;2.87;;;2.17;;
14619;SDS011;32125;48.518;9.050;2023-04-03T08:07:23;3.60;;;2.40;;
14619;SDS011;32125;48.518;9.050;2023-04-03T08:09:49;2.50;;;2.30;;
14619;SDS011;32125;48.518;9.050;2023-04-03T08:12:15;2.30;;;2.10;;
14619;SDS011;32125;48.518;9.050;2023-04-03T08:14:41;2.53;;;2.33;;
14619;SDS011;32125;48.518;9.050;2023-04-03T08:17:08;2.33;;;2.17;;
14619;SDS011;32125;48.518;9.050;2023-04-03T08:19:37;4.13;;;2.07;;
14619;SDS011;32125;48.518;9.050;2023-04-03T08:22:03;2.40;;;2.20;;
14619;SDS011;32125;48.518;9.050;2023-04-03T08:24:30;3.57;;;2.50;;
14619;SDS011;32125;48.518;9.050;2023-04-03T08:26:56;2.37;;;2.17;;
14619;SDS011;32125;48.518;9.050;2023-04-03T08:29:24;2.87;;;2.30;;
14619;SDS011;32125;48.518;9.050;2023-04-03T08:31:50;3.43;;;2.30;;
14619;SDS011;32125;48.518;9.050;2023-04-03T08:34:17;2.87;;;2.13;;
14619;SDS011;32125;48.518;9.050;2023-04-03T08:36:44;3.83;;;2.50;;
14619;SDS011;32125;48.518;9.050;2023-04-03T08:39:11;2.53;;;2.03;;
14619;SDS011;32125;48.518;9.050;2023-04-03T08:41:40;2.73;;;2.53;;
14619;SDS011;32125;48.518;9.050;2023-04-03T08:49:24;3.40;;;2.37;;
14619;SDS011;32125;48.518;9.050;2023-04-03T08:51:57;2.23;;;2.03;;
14619;SDS011;32125;48.518;9.050;2023-04-03T08:54:29;3.03;;;2.00;;
14619;SDS011;32125;48.518;9.050;2023-04-03T08:56:58;3.83;;;2.30;;
14619;SDS011;32125;48.518;9.050;2023-04-03T08:59:31;2.77;;;2.30;;
14619;SDS011;32125;48.518;9.050;2023-04-03T09:02:01;2.47;;;2.20;;
14619;SDS011;32125;48.518;9.050;2023-04-03T09:04:29;3.07;;;2.50;;
14619;SDS011;32125;48.518;9.050;2023-04-03T09:07:06;2.43;;;2.23;;
14619;SDS011;32125;48.518;9.050;2023-04-03T09:09:39;3.07;;;2.40;;
14619;SDS011;32125;48.518;9.050;2023-04-03T09:12:23;3.23;;;2.30;;
14619;SDS011;32125;48.518;9.050;2023-04-03T09:22:51;3.33;;;2.10;;
14619;SDS011;32125;48.518;9.050;2023-04-03T09:25:21;3.40;;;2.80;;
14619;SDS011;32125;48.518;9.050;2023-04-03T09:27:52;2.60;;;2.40;;
14619;SDS011;32125;48.518;9.050;2023-04-03T09:30:21;2.90;;;2.30;;
14619;SDS011;32125;48.518;9.050;2023-04-03T09:32:49;2.67;;;2.30;;
14619;SDS011;32125;48.518;9.050;2023-04-03T09:37:53;3.00;;;2.57;;
14619;SDS011;32125;48.518;9.050;2023-04-03T09:42:51;3.20;;;2.27;;
14619;SDS011;32125;48.518;9.050;2023-04-03T09:45:24;2.30;;;2.03;;
14619;SDS011;32125;48.518;9.050;2023-04-03T09:48:04;2.63;;;2.00;;
14619;SDS011;32125;48.518;9.050;2023-04-03T09:50:31;2.93;;;2.00;;
14619;SDS011;32125;48.518;9.050;2023-04-03T09:53:01;2.10;;;1.90;;
14619;SDS011;32125;48.518;9.050;2023-04-03T09:55:29;2.57;;;2.20;;
14619;SDS011;32125;48.518;9.050;2023-04-03T09:57:59;3.20;;;2.27;;
14619;SDS011;32125;48.518;9.050;2023-04-03T10:00:38;4.00;;;2.70;;
14619;SDS011;32125;48.518;9.050;2023-04-03T10:03:05;2.40;;;2.20;;
14619;SDS011;32125;48.518;9.050;2023-04-03T10:05:46;3.27;;;2.37;;
14619;SDS011;32125;48.518;9.050;2023-04-03T10:10:45;2.80;;;2.40;;
14619;SDS011;32125;48.518;9.050;2023-04-03T10:13:19;2.70;;;2.20;;
14619;SDS011;32125;48.518;9.050;2023-04-03T10:15:56;2.30;;;2.10;;
14619;SDS011;32125;48.518;9.050;2023-04-03T10:21:00;3.27;;;2.40;;
14619;SDS011;32125;48.518;9.050;2023-04-03T10:23:40;4.60;;;2.33;;
14619;SDS011;32125;48.518;9.050;2023-04-03T10:39:18;2.10;;;1.93;;
14619;SDS011;32125;48.518;9.050;2023-04-03T10:47:02;2.50;;;2.13;;
14619;SDS011;32125;48.518;9.050;2023-04-03T10:55:16;2.40;;;2.20;;
14619;SDS011;32125;48.518;9.050;2023-04-03T10:57:54;2.47;;;2.23;;
14619;SDS011;32125;48.518;9.050;2023-04-03T11:00:25;2.87;;;1.97;;
14619;SDS011;32125;48.518;9.050;2023-04-03T11:03:03;2.37;;;1.93;;
14619;SDS011;32125;48.518;9.050;2023-04-03T11:08:21;2.97;;;2.23;;
14619;SDS011;32125;48.518;9.050;2023-04-03T11:10:53;3.23;;;2.13;;
14619;SDS011;32125;48.518;9.050;2023-04-03T11:13:33;2.43;;;2.10;;
14619;SDS011;32125;48.518;9.050;2023-04-03T11:16:13;2.40;;;2.20;;
14619;SDS011;32125;48.518;9.050;2023-04-03T11:18:45;2.47;;;2.03;;
14619;SDS011;32125;48.518;9.050;2023-04-03T11:23:44;2.10;;;1.90;;
14619;SDS011;32125;48.518;9.050;2023-04-03T11:26:12;2.10;;;1.90;;
14619;SDS011;32125;48.518;9.050;2023-04-03T11:28:39;1.83;;;1.73;;
14619;SDS011;32125;48.518;9.050;2023-04-03T11:33:55;3.03;;;1.67;;
14619;SDS011;32125;48.518;9.050;2023-04-03T11:36:30;3.13;;;1.57;;
14619;SDS011;32125;48.518;9.050;2023-04-03T11:39:06;2.53;;;1.90;;
14619;SDS011;32125;48.518;9.050;2023-04-03T11:42:12;2.13;;;1.63;;
14619;SDS011;32125;48.518;9.050;2023-04-03T11:44:39;2.13;;;1.80;;
14619;SDS011;32125;48.518;9.050;2023-04-03T11:47:07;1.90;;;1.80;;
14619;SDS011;32125;48.518;9.050;2023-04-03T12:03:22;3.03;;;1.90;;
14619;SDS011;32125;48.518;9.050;2023-04-03T12:21:23;3.40;;;2.43;;
14619;SDS011;32125;48.518;9.050;2023-04-03T12:34:38;2.73;;;1.90;;
14619;SDS011;32125;48.518;9.050;2023-04-03T12:37:34;2.20;;;1.80;;
14619;SDS011;32125;48.518;9.050;2023-04-03T12:45:40;2.37;;;1.70;;
14619;SDS011;32125;48.518;9.050;2023-04-03T12:48:08;2.40;;;1.77;;
14619;SDS011;32125;48.518;9.050;2023-04-03T12:50:43;2.37;;;1.80;;
14619;SDS011;32125;48.518;9.050;2023-04-03T12:53:13;2.70;;;1.80;;
14619;SDS011;32125;48.518;9.050;2023-04-03T12:55:42;3.30;;;1.70;;
14619;SDS011;32125;48.518;9.050;2023-04-03T12:58:14;4.17;;;1.83;;
14619;SDS011;32125;48.518;9.050;2023-04-03T13:00:58;1.73;;;1.53;;
14619;SDS011;32125;48.518;9.050;2023-04-03T13:03:26;1.87;;;1.70;;
14619;SDS011;32125;48.518;9.050;2023-04-03T13:05:54;2.60;;;1.70;;
14619;SDS011;32125;48.518;9.050;2023-04-03T13:08:26;2.17;;;1.77;;
14619;SDS011;32125;48.518;9.050;2023-04-03T13:10:54;2.67;;;2.17;;
14619;SDS011;32125;48.518;9.050;2023-04-03T13:13:21;2.03;;;1.77;;
14619;SDS011;32125;48.518;9.050;2023-04-03T13:15:49;3.43;;;1.80;;
14619;SDS011;32125;48.518;9.050;2023-04-03T13:20:48;2.30;;;2.00;;
14619;SDS011;32125;48.518;9.050;2023-04-03T13:25:48;2.33;;;1.80;;
14619;SDS011;32125;48.518;9.050;2023-04-03T13:28:18;2.43;;;1.60;;
14619;SDS011;32125;48.518;9.050;2023-04-03T13:33:23;2.40;;;1.90;;
14619;SDS011;32125;48.518;9.050;2023-04-03T13:35:54;1.90;;;1.70;;
14619;SDS011;32125;48.518;9.050;2023-04-03T13:38:26;3.43;;;1.77;;
14619;SDS011;32125;48.518;9.050;2023-04-03T13:40:57;4.73;;;2.07;;
14619;SDS011;32125;48.518;9.050;2023-04-03T13:43:30;2.10;;;1.90;;
14619;SDS011;32125;48.518;9.050;2023-04-03T13:48:46;2.80;;;1.90;;
14619;SDS011;32125;48.518;9.050;2023-04-03T13:53:55;1.73;;;1.63;;
14619;SDS011;32125;48.518;9.050;2023-04-03T14:01:20;1.77;;;1.67;;
14619;SDS011;32125;48.518;9.050;2023-04-03T14:03:51;1.70;;;1.60;;
14619;SDS011;32125;48.518;9.050;2023-04-03T14:06:18;2.10;;;1.80;;
14619;SDS011;32125;48.518;9.050;2023-04-03T14:08:44;2.27;;;2.00;;
14619;SDS011;32125;48.518;9.050;2023-04-03T14:13:40;2.53;;;2.10;;
14619;SDS011;32125;48.518;9.050;2023-04-03T14:16:06;3.13;;;2.00;;
14619;SDS011;32125;48.518;9.050;2023-04-03T14:18:32;2.67;;;2.10;;
14619;SDS011;32125;48.518;9.050;2023-04-03T14:20:58;3.13;;;1.90;;
14619;SDS011;32125;48.518;9.050;2023-04-03T14:23:24;1.83;;;1.70;;
14619;SDS011;32125;48.518;9.050;2023-04-03T14:25:50;3.37;;;2.00;;
14619;SDS011;32125;48.518;9.050;2023-04-03T14:28:18;2.63;;;1.90;;
14619;SDS011;32125;48.518;9.050;2023-04-03T14:30:46;3.00;;;1.90;;
14619;SDS011;32125;48.518;9.050;2023-04-03T14:33:15;2.50;;;1.80;;
14619;SDS011;32125;48.518;9.050;2023-04-03T14:35:43;2.70;;;1.70;;
14619;SDS011;32125;48.518;9.050;2023-04-03T14:38:30;3.67;;;2.13;;
14619;SDS011;32125;48.518;9.050;2023-04-03T14:40:56;2.57;;;1.97;;
14619;SDS011;32125;48.518;9.050;2023-04-03T14:43:23;4.77;;;1.90;;
14619;SDS011;32125;48.518;9.050;2023-04-03T14:45:50;2.10;;;1.90;;
14619;SDS011;32125;48.518;9.050;2023-04-03T14:48:20;1.77;;;1.67;;
14619;SDS011;32125;48.518;9.050;2023-04-03T14:50:47;3.00;;;2.03;;
14619;SDS011;32125;48.518;9.050;2023-04-03T14:53:14;3.33;;;1.90;;
14619;SDS011;32125;48.518;9.050;2023-04-03T14:55:49;3.40;;;1.90;;
14619;SDS011;32125;48.518;9.050;2023-04-03T14:58:16;2.60;;;2.40;;
14619;SDS011;32125;48.518;9.050;2023-04-03T15:00:45;2.03;;;1.77;;
14619;SDS011;32125;48.518;9.050;2023-04-03T15:03:20;2.00;;;1.80;;
14619;SDS011;32125;48.518;9.050;2023-04-03T15:06:21;2.00;;;1.87;;
14619;SDS011;32125;48.518;9.050;2023-04-03T15:08:47;2.67;;;1.80;;
14619;SDS011;32125;48.518;9.050;2023-04-03T15:11:13;2.00;;;1.63;;
14619;SDS011;32125;48.518;9.050;2023-04-03T15:13:42;2.93;;;1.90;;
14619;SDS011;32125;48.518;9.050;2023-04-03T15:16:12;2.27;;;2.07;;
14619;SDS011;32125;48.518;9.050;2023-04-03T15:18:44;2.60;;;2.00;;
14619;SDS011;32125;48.518;9.050;2023-04-03T15:21:10;3.17;;;2.10;;
14619;SDS011;32125;48.518;9.050;2023-04-03T15:23:37;2.30;;;2.07;;
14619;SDS011;32125;48.518;9.050;2023-04-03T15:26:04;1.93;;;1.80;;
14619;SDS011;32125;48.518;9.050;2023-04-03T15:28:32;2.10;;;1.90;;
14619;SDS011;32125;48.518;9.050;2023-04-03T15:31:01;2.80;;;2.00;;
14619;SDS011;32125;48.518;9.050;2023-04-03T15:33:27;2.77;;;2.00;;
14619;SDS011;32125;48.518;9.050;2023-04-03T15:35:53;2.50;;;2.10;;
14619;SDS011;32125;48.518;9.050;2023-04-03T15:38:19;2.33;;;1.80;;
14619;SDS011;32125;48.518;9.050;2023-04-03T15:40:45;1.83;;;1.73;;
14619;SDS011;32125;48.518;9.050;2023-04-03T15:43:15;2.43;;;2.17;;
14619;SDS011;32125;48.518;9.050;2023-04-03T15:45:42;3.53;;;1.97;;
14619;SDS011;32125;48.518;9.050;2023-04-03T15:48:09;3.40;;;1.90;;
14619;SDS011;32125;48.518;9.050;2023-04-03T15:50:35;5.03;;;2.20;;
14619;SDS011;32125;48.518;9.050;2023-04-03T15:55:49;2.63;;;2.10;;
14619;SDS011;32125;48.518;9.050;2023-04-03T15:58:15;2.70;;;2.10;;
14619;SDS011;32125;48.518;9.050;2023-04-03T16:00:41;2.87;;;1.90;;
14619;SDS011;32125;48.518;9.050;2023-04-03T16:03:08;3.07;;;2.10;;
14619;SDS011;32125;48.518;9.050;2023-04-03T16:05:36;1.80;;;1.70;;
14619;SDS011;32125;48.518;9.050;2023-04-03T16:08:02;3.17;;;1.90;;
14619;SDS011;32125;48.518;9.050;2023-04-03T16:10:28;3.20;;;2.00;;
14619;SDS011;32125;48.518;9.050;2023-04-03T16:12:54;2.43;;;2.00;;
14619;SDS011;32125;48.518;9.050;2023-04-03T16:15:20;2.20;;;1.97;;
14619;SDS011;32125;48.518;9.050;2023-04-03T16:17:47;3.83;;;2.23;;
14619;SDS011;32125;48.518;9.050;2023-04-03T16:20:14;2.67;;;2.00;;
14619;SDS011;32125;48.518;9.050;2023-04-03T16:22:40;5.87;;;2.30;;
14619;SDS011;32125;48.518;9.050;2023-04-03T16:25:07;4.00;;;2.30;;
14619;SDS011;32125;48.518;9.050;2023-04-03T16:27:33;3.87;;;1.87;;
14619;SDS011;32125;48.518;9.050;2023-04-03T16:29:59;2.87;;;2.10;;
14619;SDS011;32125;48.518;9.050;2023-04-03T16:32:26;2.70;;;2.20;;
14619;SDS011;32125;48.518;9.050;2023-04-03T16:34:55;4.43;;;2.33;;
14619;SDS011;32125;48.518;9.050;2023-04-03T16:37:21;3.03;;;2.53;;
14619;SDS011;32125;48.518;9.050;2023-04-03T16:39:47;3.00;;;2.37;;
14619;SDS011;32125;48.518;9.050;2023-04-03T16:42:13;3.60;;;2.57;;
14619;SDS011;32125;48.518;9.050;2023-04-03T16:44:39;2.80;;;1.90;;
14619;SDS011;32125;48.518;9.050;2023-04-03T16:47:05;2.40;;;2.20;;
14619;SDS011;32125;48.518;9.050;2023-04-03T16:49:32;2.20;;;2.00;;
14619;SDS011;32125;48.518;9.050;2023-04-03T16:51:59;3.10;;;1.80;;
14619;SDS011;32125;48.518;9.050;2023-04-03T16:54:25;3.00;;;2.20;;
14619;SDS011;32125;48.518;9.050;2023-04-03T16:56:51;4.33;;;2.20;;
14619;SDS011;32125;48.518;9.050;2023-04-03T16:59:18;2.90;;;2.20;;
14619;SDS011;32125;48.518;9.050;2023-04-03T17:01:44;2.47;;;1.70;;
14619;SDS011;32125;48.518;9.050;2023-04-03T17:04:10;2.97;;;2.00;;